createdAt,value
2023-02-06T00:00:47.274Z,26.47
2023-02-06T00:03:14.652Z,26.00
2023-02-06T00:05:41.521Z,26.50
2023-02-06T00:08:08.707Z,26.97
2023-02-06T00:10:35.729Z,27.57
2023-02-06T00:13:02.560Z,25.77
2023-02-06T00:15:29.429Z,29.77
2023-02-06T00:17:56.280Z,24.97
2023-02-06T00:20:23.170Z,27.67
2023-02-06T00:22:50.006Z,27.20
2023-02-06T00:25:16.938Z,29.73
2023-02-06T00:27:43.787Z,28.30
2023-02-06T00:30:11.264Z,27.47
2023-02-06T00:32:38.283Z,28.67
2023-02-06T00:35:07.384Z,25.03
2023-02-06T00:37:34.195Z,25.53
2023-02-06T00:40:01.068Z,26.97
2023-02-06T00:42:28.091Z,26.93
2023-02-06T00:44:54.926Z,27.20
2023-02-06T00:47:21.896Z,24.07
2023-02-06T00:49:48.735Z,24.27
2023-02-06T00:52:15.604Z,23.87
2023-02-06T00:54:42.408Z,22.47
2023-02-06T00:57:09.334Z,24.73
2023-02-06T00:59:36.245Z,24.70
2023-02-06T01:02:03.201Z,24.47
2023-02-06T01:04:31.039Z,24.93
2023-02-06T01:06:59.139Z,27.77
2023-02-06T01:09:26.133Z,26.10
2023-02-06T01:11:53.015Z,25.27
2023-02-06T01:14:19.926Z,24.30
2023-02-06T01:16:46.833Z,23.30
2023-02-06T01:19:13.820Z,24.97
2023-02-06T01:21:40.689Z,23.47
2023-02-06T01:24:07.632Z,27.37
2023-02-06T01:26:34.700Z,23.53
2023-02-06T01:29:03.401Z,22.90
2023-02-06T01:31:31.038Z,23.63
2023-02-06T01:33:59.698Z,24.20
2023-02-06T01:36:27.154Z,24.10
2023-02-06T01:38:56.304Z,21.87
2023-02-06T01:41:24.153Z,22.73
2023-02-06T01:44:13.288Z,25.67
2023-02-06T01:46:42.636Z,25.17
2023-02-06T01:49:16.274Z,26.90
2023-02-06T01:51:43.609Z,23.37
2023-02-06T01:54:10.983Z,24.03
2023-02-06T01:56:44.131Z,21.20
2023-02-06T01:59:12.433Z,21.27
2023-02-06T02:01:40.499Z,20.10
2023-02-06T02:04:10.873Z,20.53
2023-02-06T02:06:37.866Z,19.80
2023-02-06T02:09:07.317Z,17.13
2023-02-06T02:11:36.403Z,17.30
2023-02-06T02:14:06.539Z,17.23
2023-02-06T02:16:51.645Z,18.90
2023-02-06T02:19:55.981Z,17.57
2023-02-06T02:23:19.865Z,16.90
2023-02-06T02:26:08.064Z,15.83
2023-02-06T02:28:43.490Z,15.83
2023-02-06T02:31:37.204Z,18.10
2023-02-06T02:34:41.252Z,17.67
2023-02-06T02:37:27.109Z,17.33
2023-02-06T02:40:08.559Z,19.53
2023-02-06T02:42:43.831Z,18.10
2023-02-06T02:45:23.774Z,18.07
2023-02-06T02:48:12.956Z,17.13
2023-02-06T02:50:40.991Z,15.97
2023-02-06T02:53:08.205Z,17.80
2023-02-06T02:55:36.027Z,18.53
2023-02-06T02:58:08.986Z,17.73
2023-02-06T03:00:42.486Z,18.27
2023-02-06T03:03:13.172Z,20.60
2023-02-06T03:06:03.454Z,19.00
2023-02-06T03:08:53.300Z,17.23
2023-02-06T03:11:23.768Z,20.67
2023-02-06T03:13:55.504Z,17.70
2023-02-06T03:16:44.278Z,16.90
2023-02-06T03:19:20.731Z,17.83
2023-02-06T03:21:48.650Z,18.23
2023-02-06T03:24:26.444Z,17.47
2023-02-06T03:26:58.696Z,19.27
2023-02-06T03:29:28.424Z,16.13
2023-02-06T03:32:33.286Z,15.97
2023-02-06T03:35:13.643Z,17.67
2023-02-06T03:37:40.650Z,17.03
2023-02-06T03:40:08.793Z,16.47
2023-02-06T03:42:40.297Z,19.13
2023-02-06T03:45:22.644Z,15.53
2023-02-06T03:47:52.239Z,16.73
2023-02-06T03:50:19.768Z,15.63
2023-02-06T03:52:50.233Z,14.43
2023-02-06T03:55:21.269Z,15.47
2023-02-06T03:57:52.684Z,14.70
2023-02-06T04:00:20.386Z,14.20
2023-02-06T04:02:49.237Z,14.67
2023-02-06T04:05:17.835Z,16.80
2023-02-06T04:07:45.059Z,16.60
2023-02-06T04:10:12.043Z,15.27
2023-02-06T04:12:38.872Z,16.03
2023-02-06T04:15:06.196Z,13.97
2023-02-06T04:17:49.688Z,13.87
2023-02-06T04:20:20.704Z,14.33
2023-02-06T04:22:48.317Z,15.00
2023-02-06T04:25:15.138Z,15.43
2023-02-06T04:27:41.977Z,12.53
2023-02-06T04:30:09.508Z,13.27
2023-02-06T04:32:36.346Z,12.23
2023-02-06T04:35:03.357Z,10.97
2023-02-06T04:37:30.227Z,13.80
2023-02-06T04:39:57.079Z,13.17
2023-02-06T04:42:23.889Z,12.33
2023-02-06T04:44:50.854Z,10.43
2023-02-06T04:47:17.655Z,13.23
2023-02-06T04:49:44.516Z,11.10
2023-02-06T04:52:11.322Z,14.27
2023-02-06T04:54:38.157Z,12.77
2023-02-06T04:57:05.193Z,13.97
2023-02-06T04:59:32.452Z,20.40
2023-02-06T05:01:59.605Z,26.00
2023-02-06T05:04:26.542Z,28.27
2023-02-06T05:06:53.346Z,25.73
2023-02-06T05:09:20.323Z,24.57
2023-02-06T05:11:47.208Z,22.50
2023-02-06T05:14:14.067Z,21.00
2023-02-06T05:16:40.889Z,21.97
2023-02-06T05:19:07.971Z,20.10
2023-02-06T05:21:34.813Z,16.13
2023-02-06T05:24:01.701Z,15.83
2023-02-06T05:26:28.602Z,15.97
2023-02-06T05:28:55.461Z,13.93
2023-02-06T05:31:22.484Z,15.10
2023-02-06T05:33:53.607Z,13.77
2023-02-06T05:36:21.752Z,14.50
2023-02-06T05:38:49.550Z,17.70
2023-02-06T05:41:16.685Z,18.10
2023-02-06T05:43:43.731Z,16.67
2023-02-06T05:46:12.963Z,20.47
2023-02-06T05:48:40.680Z,22.43
2023-02-06T05:51:07.935Z,22.67
2023-02-06T05:53:34.772Z,22.67
2023-02-06T05:56:01.879Z,21.97
2023-02-06T05:58:28.780Z,25.40
2023-02-06T06:00:55.648Z,24.17
2023-02-06T06:03:22.669Z,25.03
2023-02-06T06:05:49.445Z,28.87
2023-02-06T06:08:16.573Z,30.53
2023-02-06T06:10:43.489Z,31.37
2023-02-06T06:13:10.419Z,31.10
2023-02-06T06:15:37.569Z,32.97
2023-02-06T06:18:04.720Z,29.67
2023-02-06T06:20:31.632Z,33.10
2023-02-06T06:22:58.475Z,34.50
2023-02-06T06:25:25.358Z,33.60
2023-02-06T06:27:52.216Z,36.13
2023-02-06T06:30:19.179Z,34.43
2023-02-06T06:32:45.986Z,34.83
2023-02-06T06:35:12.908Z,34.10
2023-02-06T06:37:39.743Z,34.37
2023-02-06T06:40:07.236Z,31.57
2023-02-06T06:42:34.171Z,32.27
2023-02-06T06:45:01.068Z,30.33
2023-02-06T06:47:28.112Z,31.87
2023-02-06T06:49:54.906Z,28.40
2023-02-06T06:52:25.459Z,32.30
2023-02-06T06:54:53.046Z,30.30
2023-02-06T06:57:21.494Z,30.43
2023-02-06T06:59:48.992Z,28.27
2023-02-06T07:02:16.404Z,28.07
2023-02-06T07:04:43.359Z,28.87
2023-02-06T07:07:10.339Z,30.07
2023-02-06T07:09:37.191Z,31.70
2023-02-06T07:12:04.420Z,32.03
2023-02-06T07:14:31.259Z,29.17
2023-02-06T07:16:59.901Z,30.53
2023-02-06T07:19:26.835Z,28.77
2023-02-06T07:21:53.771Z,29.97
2023-02-06T07:24:20.607Z,31.47
2023-02-06T07:26:47.480Z,29.57
2023-02-06T07:29:14.355Z,29.30
2023-02-06T07:31:41.195Z,27.73
2023-02-06T07:34:08.138Z,25.97
2023-02-06T07:36:35.149Z,26.90
2023-02-06T07:39:03.214Z,27.87
2023-02-06T07:41:30.246Z,30.97
2023-02-06T07:43:57.072Z,29.87
2023-02-06T07:46:23.985Z,29.73
2023-02-06T07:48:51.021Z,29.60
2023-02-06T07:51:17.934Z,27.00
2023-02-06T07:53:44.807Z,22.77
2023-02-06T07:56:18.351Z,23.80
2023-02-06T07:58:47.331Z,20.33
2023-02-06T08:01:14.245Z,18.97
2023-02-06T08:03:41.108Z,17.27
2023-02-06T08:06:15.999Z,14.60
2023-02-06T08:08:44.028Z,16.83
2023-02-06T08:11:15.273Z,14.50
2023-02-06T08:13:42.917Z,13.80
2023-02-06T08:16:15.725Z,17.77
2023-02-06T08:18:42.743Z,14.30
2023-02-06T08:21:18.188Z,17.00
2023-02-06T08:23:45.561Z,14.80
2023-02-06T08:26:17.860Z,13.27
2023-02-06T08:28:48.941Z,13.40
2023-02-06T08:31:17.604Z,12.73
2023-02-06T08:33:45.530Z,16.30
2023-02-06T08:36:13.254Z,17.80
2023-02-06T08:38:40.670Z,18.33
2023-02-06T08:41:22.212Z,15.87
2023-02-06T08:43:51.095Z,14.63
2023-02-06T08:46:19.754Z,14.40
2023-02-06T08:48:47.070Z,14.87
2023-02-06T08:51:15.353Z,17.20
2023-02-06T08:53:42.194Z,15.43
2023-02-06T08:56:11.854Z,15.53
2023-02-06T08:58:39.398Z,15.47
2023-02-06T09:01:13.788Z,15.63
2023-02-06T09:03:41.847Z,15.50
2023-02-06T09:06:10.585Z,16.13
2023-02-06T09:08:38.957Z,16.47
2023-02-06T09:11:08.204Z,15.63
2023-02-06T09:13:35.625Z,16.23
2023-02-06T09:16:02.545Z,16.17
2023-02-06T09:18:29.629Z,13.90
2023-02-06T09:21:10.178Z,15.13
2023-02-06T09:23:38.545Z,14.90
2023-02-06T09:26:05.497Z,15.23
2023-02-06T09:28:33.020Z,14.60
2023-02-06T09:31:00.176Z,14.80
2023-02-06T09:33:27.313Z,15.63
2023-02-06T09:36:09.851Z,15.57
2023-02-06T09:38:39.941Z,18.47
2023-02-06T09:41:21.299Z,17.67
2023-02-06T09:44:18.497Z,15.80
2023-02-06T09:46:57.995Z,14.77
2023-02-06T09:49:42.796Z,15.23
2023-02-06T09:52:21.579Z,12.50
2023-02-06T09:55:07.264Z,13.80
2023-02-06T09:57:51.887Z,12.87
2023-02-06T10:00:43.596Z,12.70
2023-02-06T10:03:31.892Z,13.60
2023-02-06T10:06:14.098Z,17.13
2023-02-06T10:09:07.359Z,13.80
2023-02-06T10:11:48.363Z,16.93
2023-02-06T10:14:40.730Z,12.43
2023-02-06T10:17:21.892Z,12.43
2023-02-06T10:20:07.300Z,12.60
2023-02-06T10:22:48.458Z,12.57
2023-02-06T10:25:28.928Z,14.80
2023-02-06T10:28:03.059Z,15.13
2023-02-06T10:31:09.598Z,14.13
2023-02-06T10:34:18.138Z,14.57
2023-02-06T10:37:16.529Z,13.87
2023-02-06T10:40:11.096Z,13.87
2023-02-06T10:42:53.113Z,14.13
2023-02-06T10:45:35.263Z,14.43
2023-02-06T10:48:21.481Z,13.30
2023-02-06T10:50:58.366Z,13.97
2023-02-06T10:53:34.259Z,12.70
2023-02-06T10:56:11.642Z,14.57
2023-02-06T10:58:50.032Z,13.80
2023-02-06T11:01:26.033Z,14.10
2023-02-06T11:04:05.702Z,13.47
2023-02-06T11:06:32.751Z,15.13
2023-02-06T11:08:59.647Z,14.90
2023-02-06T11:11:32.358Z,15.53
2023-02-06T11:14:14.730Z,15.20
2023-02-06T11:16:42.565Z,17.43
2023-02-06T11:19:34.679Z,14.83
2023-02-06T11:22:09.508Z,15.60
2023-02-06T11:24:38.287Z,20.43
2023-02-06T11:27:25.753Z,19.97
2023-02-06T11:29:53.188Z,17.13
2023-02-06T11:32:35.977Z,16.10
2023-02-06T11:35:20.700Z,16.57
2023-02-06T11:37:54.796Z,15.37
2023-02-06T11:40:23.394Z,16.77
2023-02-06T11:42:54.202Z,17.87
2023-02-06T11:45:32.745Z,15.57
2023-02-06T11:48:00.410Z,15.27
2023-02-06T11:50:36.830Z,15.83
2023-02-06T11:53:15.155Z,14.40
2023-02-06T11:55:43.078Z,16.60
2023-02-06T11:58:13.110Z,15.50
2023-02-06T12:00:55.938Z,13.30
2023-02-06T12:03:33.140Z,14.23
2023-02-06T12:06:11.587Z,14.13
2023-02-06T12:08:53.694Z,14.70
2023-02-06T12:11:29.195Z,13.53
2023-02-06T12:14:11.543Z,12.67
2023-02-06T12:16:41.886Z,13.17
2023-02-06T12:19:24.872Z,12.33
2023-02-06T12:21:56.138Z,11.63
2023-02-06T12:24:28.787Z,12.60
2023-02-06T12:26:58.057Z,13.77
2023-02-06T12:29:38.176Z,13.57
2023-02-06T12:32:22.821Z,13.30
2023-02-06T12:34:56.347Z,14.60
2023-02-06T12:37:37.877Z,14.37
2023-02-06T12:40:12.868Z,15.57
2023-02-06T12:42:43.711Z,14.40
2023-02-06T12:45:17.267Z,15.47
2023-02-06T12:48:07.019Z,16.63
2023-02-06T12:51:06.157Z,14.93
2023-02-06T12:54:01.668Z,15.73
2023-02-06T12:56:47.795Z,15.77
2023-02-06T12:59:41.619Z,14.93
2023-02-06T13:02:48.896Z,18.50
2023-02-06T13:05:33.641Z,18.60
2023-02-06T13:08:12.542Z,16.03
2023-02-06T13:10:40.666Z,16.87
2023-02-06T13:13:24.034Z,15.70
2023-02-06T13:15:54.971Z,15.03
2023-02-06T13:18:40.635Z,20.27
2023-02-06T13:21:32.391Z,18.20
2023-02-06T13:24:02.477Z,14.27
2023-02-06T13:26:48.925Z,16.43
2023-02-06T13:29:27.724Z,17.70
2023-02-06T13:32:15.838Z,13.33
2023-02-06T13:34:47.096Z,15.73
2023-02-06T13:37:26.161Z,14.33
2023-02-06T13:40:17.706Z,15.03
2023-02-06T13:42:57.000Z,14.87
2023-02-06T13:45:26.216Z,14.73
2023-02-06T13:48:08.124Z,16.53
2023-02-06T13:50:50.202Z,13.97
2023-02-06T13:53:41.491Z,15.33
2023-02-06T13:56:26.828Z,15.50
2023-02-06T13:58:55.852Z,15.83
2023-02-06T14:01:30.470Z,14.07
2023-02-06T14:03:58.842Z,14.57
2023-02-06T14:06:49.311Z,14.47
2023-02-06T14:09:42.483Z,13.63
2023-02-06T14:12:38.832Z,15.60
2023-02-06T14:15:31.711Z,16.37
2023-02-06T14:18:17.811Z,15.73
2023-02-06T14:21:06.445Z,14.47
2023-02-06T14:23:55.431Z,15.10
2023-02-06T14:26:34.768Z,15.43
2023-02-06T14:29:50.235Z,14.30
2023-02-06T14:32:43.222Z,12.63
2023-02-06T14:35:16.543Z,16.33
2023-02-06T14:38:09.189Z,14.37
2023-02-06T14:40:41.578Z,13.10
2023-02-06T14:43:17.799Z,13.73
2023-02-06T14:46:05.414Z,13.27
2023-02-06T14:48:40.751Z,13.90
2023-02-06T14:51:17.835Z,14.03
2023-02-06T14:53:52.639Z,11.80
2023-02-06T14:56:32.257Z,13.43
2023-02-06T14:59:15.424Z,14.33
2023-02-06T15:01:46.283Z,11.73
2023-02-06T15:04:17.585Z,11.63
2023-02-06T15:06:54.852Z,13.77
2023-02-06T15:09:29.206Z,11.67
2023-02-06T15:12:16.462Z,15.77
2023-02-06T15:15:02.541Z,16.20
2023-02-06T15:17:30.761Z,12.30
2023-02-06T15:20:12.436Z,16.67
2023-02-06T15:22:39.472Z,16.63
2023-02-06T15:25:38.838Z,17.03
2023-02-06T15:28:16.282Z,15.90
2023-02-06T15:32:00.753Z,15.17
2023-02-06T15:34:27.981Z,15.93
2023-02-06T15:36:55.010Z,14.60
2023-02-06T15:39:22.437Z,16.50
2023-02-06T15:41:51.749Z,14.83
2023-02-06T15:44:34.278Z,15.33
2023-02-06T15:47:04.538Z,14.73
2023-02-06T15:49:48.524Z,17.30
2023-02-06T15:52:32.701Z,16.37
2023-02-06T15:55:00.919Z,13.47
2023-02-06T15:57:40.879Z,15.20
2023-02-06T16:00:23.601Z,13.20
2023-02-06T16:02:51.848Z,14.57
2023-02-06T16:05:31.050Z,12.30
2023-02-06T16:07:58.985Z,19.17
2023-02-06T16:10:32.817Z,13.87
2023-02-06T16:13:01.722Z,14.37
2023-02-06T16:15:40.816Z,13.13
2023-02-06T16:18:41.543Z,14.67
2023-02-06T16:21:17.520Z,13.67
2023-02-06T16:23:48.577Z,14.33
2023-02-06T16:26:23.516Z,11.57
2023-02-06T16:29:04.165Z,13.23
2023-02-06T16:31:34.163Z,15.03
2023-02-06T16:34:04.262Z,12.27
2023-02-06T16:36:32.600Z,13.70
2023-02-06T16:39:04.393Z,12.07
2023-02-06T16:41:37.650Z,13.17
2023-02-06T16:44:11.468Z,12.50
2023-02-06T16:46:38.391Z,14.33
2023-02-06T16:49:13.590Z,19.20
2023-02-06T16:51:42.634Z,21.97
2023-02-06T16:54:20.377Z,24.00
2023-02-06T16:56:47.742Z,20.13
2023-02-06T16:59:14.608Z,22.60
2023-02-06T17:01:41.825Z,19.77
2023-02-06T17:04:08.688Z,17.63
2023-02-06T17:06:36.368Z,17.87
2023-02-06T17:09:09.090Z,15.10
2023-02-06T17:11:37.286Z,13.93
2023-02-06T17:14:04.180Z,14.80
2023-02-06T17:16:31.967Z,13.77
2023-02-06T17:18:58.803Z,13.10
2023-02-06T17:21:28.260Z,14.50
2023-02-06T17:23:55.186Z,14.67
2023-02-06T17:26:24.183Z,18.10
2023-02-06T17:28:51.570Z,16.70
2023-02-06T17:31:19.346Z,14.93
2023-02-06T17:33:46.225Z,14.80
2023-02-06T17:36:21.920Z,17.53
2023-02-06T17:38:49.361Z,17.43
2023-02-06T17:41:16.210Z,15.90
2023-02-06T17:43:43.219Z,17.03
2023-02-06T17:46:11.626Z,17.63
2023-02-06T17:48:42.626Z,17.20
2023-02-06T17:51:09.714Z,14.03
2023-02-06T17:53:36.722Z,16.90
2023-02-06T17:56:08.897Z,15.93
2023-02-06T17:58:35.699Z,15.63
2023-02-06T18:01:02.487Z,14.63
2023-02-06T18:03:29.611Z,14.90
2023-02-06T18:05:58.776Z,14.87
2023-02-06T18:08:26.406Z,15.97
2023-02-06T18:10:53.268Z,20.27
2023-02-06T18:13:21.512Z,20.37
2023-02-06T18:15:52.646Z,26.20
2023-02-06T18:18:19.612Z,26.57
2023-02-06T18:20:46.563Z,26.70
2023-02-06T18:23:13.463Z,24.03
2023-02-06T18:25:43.446Z,21.83
2023-02-06T18:28:13.898Z,18.23
2023-02-06T18:30:41.913Z,16.90
2023-02-06T18:33:12.736Z,17.17
2023-02-06T18:35:41.186Z,14.50
2023-02-06T18:38:09.986Z,16.33
2023-02-06T18:40:38.162Z,16.10
2023-02-06T18:43:06.732Z,15.40
2023-02-06T18:45:36.437Z,17.00
2023-02-06T18:48:05.374Z,16.37
2023-02-06T18:50:33.283Z,16.10
2023-02-06T18:53:00.340Z,17.17
2023-02-06T18:55:27.204Z,17.77
2023-02-06T18:57:54.273Z,13.33
2023-02-06T19:00:22.943Z,17.17
2023-02-06T19:02:50.409Z,15.80
2023-02-06T19:05:17.391Z,15.47
2023-02-06T19:07:49.197Z,15.67
2023-02-06T19:10:16.913Z,15.20
2023-02-06T19:12:44.112Z,16.33
2023-02-06T19:15:11.819Z,16.20
2023-02-06T19:17:38.884Z,15.57
2023-02-06T19:20:06.867Z,15.53
2023-02-06T19:22:35.366Z,14.70
2023-02-06T19:25:04.027Z,15.53
2023-02-06T19:27:30.883Z,15.47
2023-02-06T19:29:57.701Z,17.43
2023-02-06T19:32:28.516Z,16.97
2023-02-06T19:34:55.603Z,14.97
2023-02-06T19:37:22.404Z,13.10
2023-02-06T19:39:49.270Z,14.93
2023-02-06T19:42:17.704Z,14.83
2023-02-06T19:44:44.845Z,14.33
2023-02-06T19:47:11.756Z,14.33
2023-02-06T19:49:38.777Z,13.80
2023-02-06T19:52:05.928Z,14.47
2023-02-06T19:54:32.725Z,12.70
2023-02-06T19:57:00.652Z,12.30
2023-02-06T19:59:29.552Z,13.27
2023-02-06T20:02:01.350Z,12.57
2023-02-06T20:04:34.694Z,12.80
2023-02-06T20:07:02.056Z,14.23
2023-02-06T20:09:29.728Z,13.13
2023-02-06T20:11:57.447Z,14.40
2023-02-06T20:14:25.355Z,14.03
2023-02-06T20:16:52.307Z,14.50
2023-02-06T20:19:22.414Z,13.63
2023-02-06T20:21:53.173Z,12.53
2023-02-06T20:24:23.507Z,14.40
2023-02-06T20:26:55.874Z,13.47
2023-02-06T20:29:35.247Z,13.00
2023-02-06T20:32:04.103Z,14.27
2023-02-06T20:34:31.178Z,14.77
2023-02-06T20:36:58.437Z,14.37
2023-02-06T20:39:26.568Z,16.10
2023-02-06T20:41:53.638Z,13.67
2023-02-06T20:44:21.412Z,13.67
2023-02-06T20:46:48.807Z,11.67
2023-02-06T20:49:18.372Z,13.90
2023-02-06T20:51:45.182Z,12.53
2023-02-06T20:54:12.415Z,14.63
2023-02-06T20:56:40.258Z,15.70
2023-02-06T20:59:08.525Z,15.90
2023-02-06T21:01:35.454Z,17.77
2023-02-06T21:04:05.281Z,18.20
2023-02-06T21:06:33.628Z,17.40
2023-02-06T21:09:01.137Z,14.70
2023-02-06T21:11:29.662Z,14.47
2023-02-06T21:13:58.491Z,14.00
2023-02-06T21:16:26.457Z,13.23
2023-02-06T21:18:54.241Z,13.23
2023-02-06T21:21:21.208Z,11.27
2023-02-06T21:23:48.969Z,10.57
2023-02-06T21:26:20.403Z,10.90
2023-02-06T21:28:47.246Z,8.23
2023-02-06T21:31:18.730Z,9.30
2023-02-06T21:33:47.129Z,8.67
2023-02-06T21:36:14.628Z,9.27
2023-02-06T21:38:42.866Z,8.57
2023-02-06T21:41:15.555Z,8.90
2023-02-06T21:43:42.740Z,10.03
2023-02-06T21:46:10.893Z,8.43
2023-02-06T21:48:37.824Z,9.10
2023-02-06T21:51:15.999Z,8.13
2023-02-06T21:53:44.441Z,9.10
2023-02-06T21:56:20.494Z,9.27
2023-02-06T21:58:48.717Z,10.37
2023-02-06T22:01:17.553Z,9.50
2023-02-06T22:03:45.971Z,11.97
2023-02-06T22:06:13.701Z,11.63
2023-02-06T22:08:48.091Z,11.70
2023-02-06T22:11:19.123Z,11.87
2023-02-06T22:13:46.526Z,11.10
2023-02-06T22:16:18.478Z,11.57
2023-02-06T22:18:45.635Z,12.97
2023-02-06T22:21:15.845Z,10.97
2023-02-06T22:23:44.005Z,15.00
2023-02-06T22:26:14.019Z,13.73
2023-02-06T22:28:40.960Z,12.27
2023-02-06T22:31:11.023Z,13.07
2023-02-06T22:33:38.747Z,15.90
2023-02-06T22:36:07.689Z,13.37
2023-02-06T22:38:34.885Z,13.90
2023-02-06T22:41:04.624Z,14.53
2023-02-06T22:43:34.115Z,15.57
2023-02-06T22:46:01.019Z,17.87
2023-02-06T22:48:28.184Z,14.93
2023-02-06T22:50:55.082Z,14.80
2023-02-06T22:53:32.045Z,17.27
2023-02-06T22:56:19.211Z,17.50
2023-02-06T22:58:46.461Z,16.27
2023-02-06T23:01:15.040Z,16.63
2023-02-06T23:03:41.870Z,16.40
2023-02-06T23:06:10.883Z,18.47
2023-02-06T23:08:38.429Z,16.97
2023-02-06T23:11:06.305Z,15.87
2023-02-06T23:13:33.878Z,17.33
2023-02-06T23:16:01.175Z,16.20
2023-02-06T23:18:28.666Z,17.47
2023-02-06T23:21:12.062Z,17.50
2023-02-06T23:23:40.525Z,16.13
2023-02-06T23:26:10.312Z,17.40
2023-02-06T23:28:37.786Z,18.17
2023-02-06T23:31:05.829Z,17.77
2023-02-06T23:33:32.976Z,17.30
2023-02-06T23:36:11.230Z,20.13
2023-02-06T23:38:38.871Z,22.57
2023-02-06T23:41:13.749Z,18.97
2023-02-06T23:43:41.235Z,19.47
2023-02-06T23:46:12.100Z,17.97
2023-02-06T23:48:39.926Z,21.13
2023-02-06T23:51:07.294Z,21.63
2023-02-06T23:53:34.340Z,19.67
2023-02-06T23:56:01.216Z,21.40
2023-02-06T23:58:28.080Z,24.40
